Disclaimer

Please do not use the information listed here in-flight or in-navigation, as they are not provided to us by the airports but are provided by volunteers, so they might be outdated.

Search


Regions


Airport information page

No radio frequency information is available.

Airport informations:
Latitude: 35° 31' 48.25" N
Longitude: 134° 09' 59.59" E
Elevation: 65 feet - 20 meters
Operating hours: Remarks
Operating agency: Civil government, landing fees and diplomatic clearance may be required
Timezone: UTC+9
Fuel: N/A

Runway information:
10/28 - 6562 x 150 feet< - >2000 x 46 meters

Recent METARs:
RJOR 180500Z 16004KT 9999 FEW040 SCT070 BKN120 18/08 Q1015
RJOR 180600Z VRB02KT 9999 FEW040 SCT070 BKN130 18/09 Q1015
RJOR 180600Z VRB02KT 9999 FEW040 SCT070 BKN130 18/09 Q1015

Airport on the map: